Time,TemperatureF,DewpointF,PressureIn,WindDirection,WindDirectionDegrees,WindSpeedMPH,WindSpeedGustMPH,Humidity,HourlyPrecipIn,Conditions,Clouds,dailyrainin,SolarRadiationWatts/m^2,SoftwareType,DateUTC
2013-06-18 00:00:00,75.6,74.6,29.98,SSE,158,0.0,0.0,97,0.04,,,0.19,0.00,VWS V14.01,2013-06-18 04:00:00,
2013-06-18 00:01:00,75.4,74.5,29.98,SW,220,1.1,2.2,97,0.04,,,0.00,0.00,VWS V14.01,2013-06-18 04:01:00,
2013-06-18 00:06:00,75.7,74.7,29.98,SSE,149,2.2,2.2,97,0.04,,,0.00,0.00,VWS V14.01,2013-06-18 04:06:00,
2013-06-18 00:11:00,75.7,74.7,29.98,East,81,1.1,1.1,97,0.04,,,0.00,0.00,VWS V14.01,2013-06-18 04:11:00,
2013-06-18 00:16:00,75.6,74.6,29.98,South,184,2.2,4.4,97,0.03,,,0.00,0.00,VWS V14.01,2013-06-18 04:16:00,
2013-06-18 00:21:00,75.6,74.6,29.99,SW,221,1.1,1.1,97,0.03,,,0.00,0.00,VWS V14.01,2013-06-18 04:21:00,
2013-06-18 00:26:00,75.4,74.5,29.99,SSW,208,0.0,0.0,97,0.03,,,0.00,0.00,VWS V14.01,2013-06-18 04:26:00,
2013-06-18 00:31:00,75.6,74.6,30.00,NW,324,1.1,2.2,97,0.03,,,0.00,0.00,VWS V14.01,2013-06-18 04:31:00,
2013-06-18 00:36:00,75.4,74.5,30.00,North,358,1.1,1.1,97,0.03,,,0.00,0.00,VWS V14.01,2013-06-18 04:36:00,
2013-06-18 00:41:00,75.2,74.2,29.99,NNW,341,0.0,1.1,97,0.02,,,0.00,0.00,VWS V14.01,2013-06-18 04:41:00,
2013-06-18 00:46:00,74.9,74.1,29.99,NNW,341,1.1,3.3,97,0.01,,,0.00,0.00,VWS V14.01,2013-06-18 04:46:00,
2013-06-18 00:51:00,74.8,73.8,29.99,NNW,348,1.1,1.1,97,0.01,,,0.00,0.00,VWS V14.01,2013-06-18 04:51:00,
2013-06-18 00:56:00,74.8,73.9,29.99,NNE,16,0.0,0.0,97,0.00,,,0.00,0.00,VWS V14.01,2013-06-18 04:56:00,
2013-06-18 01:01:00,74.8,73.8,29.99,NNE,12,2.2,2.2,97,0.00,,,0.00,0.00,VWS V14.01,2013-06-18 05:01:00,
2013-06-18 01:06:00,74.8,73.8,29.98,NNE,12,0.0,1.1,97,0.00,,,0.00,0.00,VWS V14.01,2013-06-18 05:06:00,
2013-06-18 01:11:00,74.8,73.8,29.98,NNE,12,0.0,0.0,97,0.00,,,0.00,0.00,VWS V14.01,2013-06-18 05:11:00,
2013-06-18 01:16:00,74.8,73.8,29.98,NNE,12,0.0,0.0,97,0.00,,,0.00,0.00,VWS V14.01,2013-06-18 05:16:00,
2013-06-18 01:21:00,74.8,73.8,29.98,NNE,12,0.0,0.0,97,0.00,,,0.00,0.00,VWS V14.01,2013-06-18 05:21:00,
2013-06-18 01:26:00,74.7,73.8,29.97,NNE,19,0.0,0.0,97,0.00,,,0.00,0.00,VWS V14.01,2013-06-18 05:26:00,
2013-06-18 01:31:00,74.6,73.7,29.97,NNE,19,2.2,2.2,97,0.00,,,0.00,0.00,VWS V14.01,2013-06-18 05:31:00,
2013-06-18 01:36:00,74.6,73.7,29.97,NNE,19,0.0,0.0,97,0.00,,,0.00,0.00,VWS V14.01,2013-06-18 05:36:00,
2013-06-18 01:41:00,74.6,73.7,29.97,NNE,19,0.0,0.0,97,0.00,,,0.00,0.00,VWS V14.01,2013-06-18 05:41:00,
2013-06-18 01:46:00,74.4,73.6,29.97,NNE,19,0.0,0.0,97,0.00,,,0.00,0.00,VWS V14.01,2013-06-18 05:46:00,
2013-06-18 01:51:00,74.6,73.7,29.97,NNE,19,0.0,0.0,97,0.00,,,0.00,0.00,VWS V14.01,2013-06-18 05:51:00,
2013-06-18 01:56:00,74.4,73.6,29.97,NNE,19,0.0,0.0,97,0.00,,,0.00,0.00,VWS V14.01,2013-06-18 05:56:00,
2013-06-18 02:01:00,74.4,73.8,29.97,NNE,19,0.0,0.0,98,0.02,,,0.02,0.00,VWS V14.01,2013-06-18 06:01:00,
2013-06-18 02:06:00,74.4,73.8,29.97,NNE,19,0.0,0.0,98,0.03,,,0.03,0.00,VWS V14.01,2013-06-18 06:06:00,
2013-06-18 02:11:00,74.4,73.8,29.96,NNE,31,1.1,1.1,98,0.04,,,0.04,0.00,VWS V14.01,2013-06-18 06:11:00,
2013-06-18 02:16:00,74.4,73.8,29.95,NNE,21,3.3,4.4,98,0.06,,,0.06,0.00,VWS V14.01,2013-06-18 06:16:00,
2013-06-18 02:21:00,74.4,73.8,29.95,West,266,0.0,0.0,98,0.08,,,0.08,0.00,VWS V14.01,2013-06-18 06:21:00,
2013-06-18 02:26:00,74.6,73.9,29.95,NNE,14,0.0,0.0,98,0.13,,,0.13,0.00,VWS V14.01,2013-06-18 06:26:00,
2013-06-18 02:31:00,74.7,74.1,29.96,SE,129,5.5,5.5,98,0.18,,,0.20,0.00,VWS V14.01,2013-06-18 06:31:00,
2013-06-18 02:36:00,74.2,73.3,29.96,SW,235,2.2,2.2,97,0.52,,,0.52,0.00,VWS V14.01,2013-06-18 06:36:00,
2013-06-18 02:41:00,74.1,73.4,29.96,WSW,255,0.0,1.1,98,0.80,,,0.80,0.00,VWS V14.01,2013-06-18 06:41:00,
2013-06-18 02:46:00,74.2,73.6,29.96,South,185,1.1,2.2,98,0.88,,,0.88,0.00,VWS V14.01,2013-06-18 06:46:00,
2013-06-18 02:51:00,74.2,73.6,29.95,SE,144,0.0,0.0,98,0.91,,,0.91,0.00,VWS V14.01,2013-06-18 06:51:00,
2013-06-18 02:56:00,74.1,73.4,29.94,SE,144,0.0,0.0,98,0.94,,,0.94,0.00,VWS V14.01,2013-06-18 06:56:00,
2013-06-18 03:01:00,73.8,73.2,29.93,SE,144,0.0,0.0,98,0.95,,,0.96,0.00,VWS V14.01,2013-06-18 07:01:00,
2013-06-18 03:06:00,73.2,72.2,29.92,South,175,0.0,0.0,97,0.93,,,0.96,0.00,VWS V14.01,2013-06-18 07:06:00,
2013-06-18 03:11:00,72.8,71.8,29.92,SSW,204,0.0,0.0,97,0.93,,,0.97,0.00,VWS V14.01,2013-06-18 07:11:00,
2013-06-18 03:16:00,72.6,72.0,29.91,SSW,204,1.1,1.1,98,0.92,,,0.98,0.00,VWS V14.01,2013-06-18 07:16:00,
2013-06-18 03:21:00,72.2,71.4,29.91,SE,128,0.0,0.0,97,0.90,,,0.98,0.00,VWS V14.01,2013-06-18 07:21:00,
2013-06-18 03:26:00,72.1,71.5,29.92,SE,133,0.0,0.0,98,0.86,,,0.99,0.00,VWS V14.01,2013-06-18 07:26:00,
2013-06-18 03:31:00,71.8,71.3,29.92,SW,221,2.2,2.2,98,0.82,,,1.00,0.00,VWS V14.01,2013-06-18 07:31:00,
2013-06-18 03:36:00,71.8,71.2,29.92,SSE,163,0.0,0.0,98,0.48,,,1.00,0.00,VWS V14.01,2013-06-18 07:36:00,
2013-06-18 03:41:00,71.8,71.2,29.93,SSE,163,0.0,0.0,98,0.21,,,1.01,0.00,VWS V14.01,2013-06-18 07:41:00,
2013-06-18 03:46:00,71.8,71.2,29.93,West,259,3.3,3.3,98,0.14,,,1.02,0.00,VWS V14.01,2013-06-18 07:46:00,
2013-06-18 03:51:00,71.8,71.2,29.93,East,83,0.0,0.0,98,0.11,,,1.02,0.00,VWS V14.01,2013-06-18 07:51:00,
2013-06-18 03:56:00,71.8,71.3,29.93,SSE,166,0.0,1.1,98,0.08,,,1.02,0.00,VWS V14.01,2013-06-18 07:56:00,
2013-06-18 04:01:00,71.8,71.3,29.92,SSE,166,0.0,0.0,98,0.07,,,1.03,0.00,VWS V14.01,2013-06-18 08:01:00,
2013-06-18 04:06:00,71.9,71.4,29.92,SSE,153,0.0,0.0,98,0.07,,,1.03,0.00,VWS V14.01,2013-06-18 08:06:00,
2013-06-18 04:11:00,71.9,71.4,29.92,SSE,152,0.0,1.1,98,0.07,,,1.04,0.00,VWS V14.01,2013-06-18 08:11:00,
2013-06-18 04:16:00,72.1,71.5,29.92,SSE,156,0.0,1.1,98,0.06,,,1.04,0.00,VWS V14.01,2013-06-18 08:16:00,
2013-06-18 04:21:00,72.1,71.5,29.92,ESE,119,0.0,0.0,98,0.06,,,1.04,0.00,VWS V14.01,2013-06-18 08:21:00,
2013-06-18 04:26:00,72.2,71.6,29.92,ESE,119,0.0,0.0,98,0.06,,,1.04,0.00,VWS V14.01,2013-06-18 08:26:00,
2013-06-18 04:31:00,72.1,71.5,29.92,ESE,119,0.0,0.0,98,0.04,,,1.04,0.00,VWS V14.01,2013-06-18 08:31:00,
2013-06-18 04:36:00,72.2,71.6,29.92,ESE,119,0.0,0.0,98,0.04,,,1.04,0.00,VWS V14.01,2013-06-18 08:36:00,
2013-06-18 04:41:00,72.1,71.5,29.92,ESE,119,0.0,0.0,98,0.03,,,1.04,0.00,VWS V14.01,2013-06-18 08:41:00,
2013-06-18 04:46:00,72.1,71.5,29.92,ESE,119,0.0,0.0,98,0.02,,,1.04,0.00,VWS V14.01,2013-06-18 08:46:00,
2013-06-18 04:51:00,72.1,71.5,29.92,ESE,119,0.0,0.0,98,0.02,,,1.04,0.00,VWS V14.01,2013-06-18 08:51:00,
2013-06-18 04:56:00,72.1,71.5,29.92,ESE,119,0.0,0.0,98,0.02,,,1.04,0.00,VWS V14.01,2013-06-18 08:56:00,
2013-06-18 05:01:00,72.1,71.5,29.92,ESE,119,0.0,0.0,98,0.01,,,1.04,0.00,VWS V14.01,2013-06-18 09:01:00,
2013-06-18 05:06:00,72.1,71.5,29.92,ESE,119,0.0,0.0,98,0.01,,,1.04,0.00,VWS V14.01,2013-06-18 09:06:00,
2013-06-18 05:11:00,71.9,71.4,29.92,ESE,119,0.0,0.0,98,0.00,,,1.04,0.00,VWS V14.01,2013-06-18 09:11:00,
2013-06-18 05:16:00,71.9,71.4,29.92,ESE,119,0.0,0.0,98,0.00,,,1.04,0.00,VWS V14.01,2013-06-18 09:16:00,
2013-06-18 05:21:00,71.9,71.4,29.92,SE,129,0.0,0.0,98,0.00,,,1.04,0.00,VWS V14.01,2013-06-18 09:21:00,
2013-06-18 05:26:00,71.8,71.3,29.92,SE,129,0.0,0.0,98,0.00,,,1.04,0.00,VWS V14.01,2013-06-18 09:26:00,
2013-06-18 05:31:00,71.9,71.4,29.92,SE,129,0.0,0.0,98,0.00,,,1.04,0.00,VWS V14.01,2013-06-18 09:31:00,
2013-06-18 05:36:00,71.9,71.4,29.92,SE,129,0.0,0.0,98,0.00,,,1.04,0.00,VWS V14.01,2013-06-18 09:36:00,
2013-06-18 05:41:00,72.1,71.5,29.92,SE,129,0.0,0.0,98,0.00,,,1.04,0.00,VWS V14.01,2013-06-18 09:41:00,
2013-06-18 05:46:00,72.1,71.5,29.92,SE,129,0.0,0.0,98,0.00,,,1.04,0.00,VWS V14.01,2013-06-18 09:46:00,
2013-06-18 05:51:00,72.2,71.6,29.92,SE,129,0.0,0.0,98,0.00,,,1.04,0.00,VWS V14.01,2013-06-18 09:51:00,
2013-06-18 05:56:00,72.2,71.6,29.92,SE,129,0.0,0.0,98,0.00,,,1.04,0.00,VWS V14.01,2013-06-18 09:56:00,
2013-06-18 06:01:00,72.2,71.7,29.92,SE,129,0.0,0.0,98,0.00,,,1.04,0.00,VWS V14.01,2013-06-18 10:01:00,
2013-06-18 06:06:00,72.2,71.7,29.92,SE,129,0.0,0.0,98,0.00,,,1.04,0.00,VWS V14.01,2013-06-18 10:06:00,
2013-06-18 06:11:00,72.2,71.6,29.92,SE,129,0.0,0.0,98,0.00,,,1.04,0.00,VWS V14.01,2013-06-18 10:11:00,
2013-06-18 06:16:00,72.2,71.6,29.92,SE,129,0.0,0.0,98,0.00,,,1.04,0.00,VWS V14.01,2013-06-18 10:16:00,
2013-06-18 06:21:00,72.2,71.6,29.92,SE,129,0.0,0.0,98,0.00,,,1.04,0.00,VWS V14.01,2013-06-18 10:21:00,
2013-06-18 06:26:00,72.2,71.7,29.92,SE,129,0.0,0.0,98,0.00,,,1.04,0.00,VWS V14.01,2013-06-18 10:26:00,
2013-06-18 06:31:00,72.2,71.7,29.92,SE,129,0.0,0.0,98,0.00,,,1.04,5.00,VWS V14.01,2013-06-18 10:31:00,
2013-06-18 06:36:00,72.3,71.8,29.92,SE,129,0.0,0.0,98,0.00,,,1.04,5.00,VWS V14.01,2013-06-18 10:36:00,
2013-06-18 06:41:00,72.3,71.8,29.92,SE,129,0.0,0.0,98,0.00,,,1.04,9.00,VWS V14.01,2013-06-18 10:41:00,
2013-06-18 06:46:00,72.4,71.9,29.92,SE,129,0.0,0.0,98,0.00,,,1.04,14.00,VWS V14.01,2013-06-18 10:46:00,
2013-06-18 06:51:00,72.4,71.9,29.93,SE,129,0.0,0.0,98,0.00,,,1.04,19.00,VWS V14.01,2013-06-18 10:51:00,
2013-06-18 06:56:00,72.7,72.1,29.93,SE,129,0.0,0.0,98,0.00,,,1.04,23.00,VWS V14.01,2013-06-18 10:56:00,
2013-06-18 07:01:00,72.8,72.2,29.93,SE,129,0.0,0.0,98,0.00,,,1.04,25.00,VWS V14.01,2013-06-18 11:01:00,
2013-06-18 07:06:00,72.8,72.3,29.93,SE,129,0.0,0.0,98,0.00,,,1.04,26.00,VWS V14.01,2013-06-18 11:06:00,
2013-06-18 07:11:00,73.1,72.5,29.93,SE,129,0.0,0.0,98,0.00,,,1.04,30.00,VWS V14.01,2013-06-18 11:11:00,
2013-06-18 07:16:00,73.2,72.7,29.93,SE,129,0.0,0.0,98,0.00,,,1.04,33.00,VWS V14.01,2013-06-18 11:16:00,
2013-06-18 07:21:00,73.4,72.9,29.93,SE,129,0.0,0.0,98,0.00,,,1.04,39.00,VWS V14.01,2013-06-18 11:21:00,
2013-06-18 07:26:00,73.6,72.9,29.93,SE,129,0.0,0.0,98,0.00,,,1.04,40.00,VWS V14.01,2013-06-18 11:26:00,
2013-06-18 07:31:00,73.7,73.1,29.93,SE,129,0.0,0.0,98,0.00,,,1.04,23.00,VWS V14.01,2013-06-18 11:31:00,
2013-06-18 07:36:00,73.8,73.2,29.93,SE,129,0.0,0.0,98,0.00,,,1.04,19.00,VWS V14.01,2013-06-18 11:36:00,
2013-06-18 07:41:00,73.8,73.6,29.93,SE,129,0.0,0.0,99,0.00,,,1.04,21.00,VWS V14.01,2013-06-18 11:41:00,
2013-06-18 07:46:00,73.9,73.3,29.93,SE,129,0.0,0.0,98,0.00,,,1.04,32.00,VWS V14.01,2013-06-18 11:46:00,
2013-06-18 07:51:00,74.2,73.6,29.93,SE,129,0.0,0.0,98,0.00,,,1.04,32.00,VWS V14.01,2013-06-18 11:51:00,
2013-06-18 07:56:00,74.3,73.8,29.93,SE,129,0.0,0.0,98,0.00,,,1.04,33.00,VWS V14.01,2013-06-18 11:56:00,
2013-06-18 08:01:00,74.8,74.4,29.93,SE,129,0.0,1.1,99,0.00,,,1.04,33.00,VWS V14.01,2013-06-18 12:01:00,
2013-06-18 08:06:00,75.1,74.4,29.93,SE,130,0.0,0.0,98,0.00,,,1.04,35.00,VWS V14.01,2013-06-18 12:06:00,
2013-06-18 08:11:00,75.3,75.1,29.93,SSW,213,0.0,5.5,99,0.00,,,1.04,35.00,VWS V14.01,2013-06-18 12:11:00,
2013-06-18 08:16:00,75.6,74.9,29.94,SSW,212,0.0,3.3,98,0.00,,,1.04,37.00,VWS V14.01,2013-06-18 12:16:00,
2013-06-18 08:21:00,75.8,75.6,29.94,South,180,2.2,2.2,99,0.00,,,1.04,39.00,VWS V14.01,2013-06-18 12:21:00,
2013-06-18 08:26:00,75.9,75.7,29.94,SE,146,0.0,3.3,99,0.00,,,1.04,39.00,VWS V14.01,2013-06-18 12:26:00,
2013-06-18 08:31:00,76.2,75.7,29.94,South,182,0.0,3.3,98,0.00,,,1.04,40.00,VWS V14.01,2013-06-18 12:31:00,
2013-06-18 08:35:00,76.6,75.9,29.94,SSW,200,0.0,1.1,98,0.00,,,1.04,42.00,VWS V14.01,2013-06-18 12:35:00,
2013-06-18 08:40:00,76.8,76.2,29.94,South,185,1.1,1.1,98,0.00,,,1.04,44.00,VWS V14.01,2013-06-18 12:40:00,
2013-06-18 08:45:00,76.9,76.3,29.94,South,185,4.4,4.4,98,0.00,,,1.04,47.00,VWS V14.01,2013-06-18 12:45:00,
2013-06-18 08:50:00,76.9,76.3,29.94,SW,216,0.0,3.3,98,0.00,,,1.04,51.00,VWS V14.01,2013-06-18 12:50:00,
2013-06-18 08:55:00,77.2,76.7,29.94,SSW,212,0.0,6.6,98,0.00,,,1.04,53.00,VWS V14.01,2013-06-18 12:55:00,
2013-06-18 09:00:00,77.6,76.6,29.94,West,272,1.1,5.5,97,0.00,,,1.04,60.00,VWS V14.01,2013-06-18 13:00:00,
2013-06-18 09:05:00,77.8,76.9,29.94,SSW,210,0.0,5.5,97,0.00,,,1.04,60.00,VWS V14.01,2013-06-18 13:05:00,
2013-06-18 09:10:00,78.2,77.3,29.94,SE,139,1.1,3.3,97,0.00,,,1.04,65.00,VWS V14.01,2013-06-18 13:10:00,
2013-06-18 09:15:00,78.4,77.2,29.94,SSE,156,5.5,6.6,96,0.00,,,1.04,63.00,VWS V14.01,2013-06-18 13:15:00,
2013-06-18 09:20:00,78.7,77.1,29.94,SW,231,0.0,2.2,95,0.00,,,1.04,51.00,VWS V14.01,2013-06-18 13:20:00,
2013-06-18 09:25:00,79.1,77.2,29.94,WSW,250,0.0,0.0,94,0.00,,,1.04,54.00,VWS V14.01,2013-06-18 13:25:00,
2013-06-18 09:30:00,79.4,77.2,29.94,SE,135,1.1,4.4,93,0.00,,,1.04,56.00,VWS V14.01,2013-06-18 13:30:00,
2013-06-18 09:35:00,79.8,77.2,29.94,WSW,250,3.3,5.5,92,0.00,,,1.04,58.00,VWS V14.01,2013-06-18 13:35:00,
2013-06-18 09:40:00,79.9,77.1,29.94,SSW,209,5.5,6.6,91,0.00,,,1.04,60.00,VWS V14.01,2013-06-18 13:40:00,
2013-06-18 09:45:00,80.2,76.9,29.94,SW,233,2.2,3.3,90,0.00,,,1.04,60.00,VWS V14.01,2013-06-18 13:45:00,
2013-06-18 09:50:00,80.4,76.9,29.94,WNW,284,0.0,0.0,89,0.00,,,1.04,62.00,VWS V14.01,2013-06-18 13:50:00,
2013-06-18 09:55:00,80.8,77.2,29.94,SW,223,2.2,2.2,89,0.00,,,1.04,67.00,VWS V14.01,2013-06-18 13:55:00,
2013-06-18 10:00:00,81.3,77.8,29.94,SSW,199,6.6,6.6,89,0.00,,,1.04,76.00,VWS V14.01,2013-06-18 14:00:00,
2013-06-18 10:05:00,81.6,77.0,29.94,NW,325,2.2,4.4,86,0.00,,,1.04,67.00,VWS V14.01,2013-06-18 14:05:00,
2013-06-18 10:10:00,81.8,77.2,29.94,WSW,257,0.0,6.6,86,0.00,,,1.04,69.00,VWS V14.01,2013-06-18 14:10:00,
2013-06-18 10:15:00,81.9,77.0,29.94,SSW,194,5.5,5.5,85,0.00,,,1.04,74.00,VWS V14.01,2013-06-18 14:15:00,
2013-06-18 10:20:00,82.2,77.6,29.94,WNW,285,3.3,3.3,86,0.00,,,1.04,83.00,VWS V14.01,2013-06-18 14:20:00,
2013-06-18 10:25:00,82.3,77.8,29.94,SW,222,0.0,4.4,86,0.00,,,1.04,81.00,VWS V14.01,2013-06-18 14:25:00,
2013-06-18 10:30:00,82.4,77.1,29.94,SSW,200,3.3,4.4,84,0.00,,,1.04,88.00,VWS V14.01,2013-06-18 14:30:00,
2013-06-18 10:35:00,82.8,77.1,29.94,West,268,3.3,6.6,83,0.00,,,1.04,83.00,VWS V14.01,2013-06-18 14:35:00,
2013-06-18 10:40:00,83.1,77.7,29.94,NW,304,3.3,4.4,84,0.00,,,1.04,77.00,VWS V14.01,2013-06-18 14:40:00,
2013-06-18 10:45:00,83.2,77.6,29.94,NW,313,3.3,3.3,83,0.00,,,1.04,84.00,VWS V14.01,2013-06-18 14:45:00,
2013-06-18 10:50:00,83.3,78.0,29.94,ESE,103,2.2,5.5,84,0.00,,,1.04,105.00,VWS V14.01,2013-06-18 14:50:00,
2013-06-18 10:55:00,83.8,78.1,29.94,WSW,254,2.2,4.4,83,0.00,,,1.04,88.00,VWS V14.01,2013-06-18 14:55:00,
2013-06-18 11:00:00,84.1,77.6,29.94,SSW,198,2.2,8.8,81,0.00,,,1.04,163.00,VWS V14.01,2013-06-18 15:00:00,
2013-06-18 11:05:00,84.6,77.7,29.94,West,264,2.2,2.2,80,0.00,,,1.04,241.00,VWS V14.01,2013-06-18 15:05:00,
2013-06-18 11:10:00,84.8,78.3,29.94,SW,224,1.1,5.5,81,0.00,,,1.04,146.00,VWS V14.01,2013-06-18 15:10:00,
2013-06-18 11:15:00,84.8,77.9,29.94,WSW,250,0.0,1.1,80,0.00,,,1.04,135.00,VWS V14.01,2013-06-18 15:15:00,
2013-06-18 11:20:00,84.8,78.3,29.94,South,172,0.0,4.4,81,0.00,,,1.04,849.00,VWS V14.01,2013-06-18 15:20:00,
2013-06-18 11:25:00,85.6,78.3,29.94,South,189,2.2,4.4,79,0.00,,,1.04,735.00,VWS V14.01,2013-06-18 15:25:00,
2013-06-18 11:30:00,85.8,78.6,29.94,SSE,168,4.4,6.6,79,0.00,,,1.04,833.00,VWS V14.01,2013-06-18 15:30:00,
2013-06-18 11:35:00,86.1,78.4,29.94,SSE,161,1.1,1.1,78,0.00,,,1.04,810.00,VWS V14.01,2013-06-18 15:35:00,
2013-06-18 11:40:00,86.1,78.0,29.94,SSW,208,0.0,3.3,77,0.00,,,1.04,795.00,VWS V14.01,2013-06-18 15:40:00,
2013-06-18 11:45:00,86.2,77.8,29.93,South,174,7.7,7.7,76,0.00,,,1.04,826.00,VWS V14.01,2013-06-18 15:45:00,
2013-06-18 11:50:00,86.6,78.9,29.94,WSW,237,1.1,5.5,78,0.00,,,1.04,838.00,VWS V14.01,2013-06-18 15:50:00,
2013-06-18 11:55:00,86.9,78.9,29.93,South,169,1.1,2.2,77,0.00,,,1.04,211.00,VWS V14.01,2013-06-18 15:55:00,
2013-06-18 12:00:00,87.2,78.8,29.93,South,171,3.3,3.3,76,0.00,,,1.04,926.00,VWS V14.01,2013-06-18 16:00:00,
2013-06-18 12:05:00,87.6,79.1,29.94,WSW,253,6.6,6.6,76,0.00,,,1.04,227.00,VWS V14.01,2013-06-18 16:05:00,
2013-06-18 12:10:00,86.8,77.6,29.93,NW,314,1.1,3.3,74,0.00,,,1.04,279.00,VWS V14.01,2013-06-18 16:10:00,
2013-06-18 12:15:00,86.6,77.7,29.94,NNW,329,1.1,4.4,75,0.00,,,1.04,200.00,VWS V14.01,2013-06-18 16:15:00,
2013-06-18 12:20:00,86.2,77.4,29.93,SW,214,2.2,3.3,75,0.00,,,1.04,183.00,VWS V14.01,2013-06-18 16:20:00,
2013-06-18 12:25:00,86.7,78.2,29.93,WNW,283,3.3,3.3,76,0.00,,,1.04,925.00,VWS V14.01,2013-06-18 16:25:00,
2013-06-18 12:30:00,87.2,78.8,29.93,SW,224,2.2,2.2,76,0.00,,,1.04,178.00,VWS V14.01,2013-06-18 16:30:00,
2013-06-18 12:35:00,86.8,77.5,29.93,NW,312,0.0,6.6,74,0.00,,,1.04,900.00,VWS V14.01,2013-06-18 16:35:00,
2013-06-18 12:40:00,87.3,78.1,29.93,SW,232,1.1,5.5,74,0.00,,,1.04,933.00,VWS V14.01,2013-06-18 16:40:00,
2013-06-18 12:45:00,87.3,78.5,29.93,SSW,205,2.2,2.2,75,0.00,,,1.04,265.00,VWS V14.01,2013-06-18 16:45:00,
2013-06-18 12:50:00,87.2,78.3,29.93,SSW,192,0.0,2.2,75,0.00,,,1.04,348.00,VWS V14.01,2013-06-18 16:50:00,
2013-06-18 12:55:00,87.2,78.7,29.93,South,178,1.1,2.2,76,0.00,,,1.04,311.00,VWS V14.01,2013-06-18 16:55:00,
2013-06-18 13:00:00,87.4,78.6,29.92,NW,312,0.0,7.7,75,0.00,,,1.04,875.00,VWS V14.01,2013-06-18 17:00:00,
2013-06-18 13:05:00,88.2,78.8,29.92,WNW,302,4.4,8.8,74,0.00,,,1.04,397.00,VWS V14.01,2013-06-18 17:05:00,
2013-06-18 13:10:00,88.6,79.2,29.92,SSW,194,1.1,2.2,74,0.00,,,1.04,958.00,VWS V14.01,2013-06-18 17:10:00,
2013-06-18 13:15:00,88.2,78.8,29.92,NNE,20,1.1,2.2,74,0.00,,,1.04,243.00,VWS V14.01,2013-06-18 17:15:00,
2013-06-18 13:20:00,87.2,79.8,29.92,SE,136,0.0,2.2,79,0.00,,,1.04,698.00,VWS V14.01,2013-06-18 17:20:00,
2013-06-18 13:25:00,87.8,78.9,29.91,SW,233,1.1,1.1,75,0.00,,,1.04,673.00,VWS V14.01,2013-06-18 17:25:00,
2013-06-18 13:30:00,88.1,78.3,29.91,SW,216,5.5,5.5,73,0.00,,,1.04,719.00,VWS V14.01,2013-06-18 17:30:00,
2013-06-18 13:35:00,88.1,77.5,29.91,SW,214,2.2,4.4,71,0.00,,,1.04,849.00,VWS V14.01,2013-06-18 17:35:00,
2013-06-18 13:40:00,88.1,77.0,29.91,SW,229,0.0,1.1,70,0.00,,,1.04,796.00,VWS V14.01,2013-06-18 17:40:00,
2013-06-18 13:45:00,88.1,77.9,29.91,NE,51,2.2,2.2,72,0.00,,,1.04,835.00,VWS V14.01,2013-06-18 17:45:00,
2013-06-18 13:50:00,88.2,79.2,29.91,SSW,193,1.1,4.4,75,0.00,,,1.04,803.00,VWS V14.01,2013-06-18 17:50:00,
2013-06-18 13:55:00,88.6,78.8,29.91,WSW,239,0.0,4.4,73,0.00,,,1.04,237.00,VWS V14.01,2013-06-18 17:55:00,
2013-06-18 14:00:00,88.1,77.9,29.91,SSW,198,1.1,1.1,72,0.00,,,1.04,373.00,VWS V14.01,2013-06-18 18:00:00,
2013-06-18 14:05:00,87.8,79.2,29.91,SSW,213,0.0,0.0,76,0.00,,,1.04,294.00,VWS V14.01,2013-06-18 18:05:00,
2013-06-18 14:10:00,88.1,78.3,29.91,West,268,1.1,1.1,73,0.00,,,1.04,345.00,VWS V14.01,2013-06-18 18:10:00,
2013-06-18 14:15:00,88.3,77.3,29.90,South,186,2.2,5.5,70,0.00,,,1.04,694.00,VWS V14.01,2013-06-18 18:15:00,
2013-06-18 14:20:00,88.8,78.1,29.90,West,277,2.2,3.3,71,0.00,,,1.04,251.00,VWS V14.01,2013-06-18 18:20:00,
2013-06-18 14:25:00,88.1,77.9,29.90,South,180,2.2,3.3,72,0.00,,,1.04,700.00,VWS V14.01,2013-06-18 18:25:00,
2013-06-18 14:30:00,88.7,78.5,29.90,SSW,195,2.2,3.3,72,0.00,,,1.04,589.00,VWS V14.01,2013-06-18 18:30:00,
2013-06-18 14:35:00,88.4,78.7,29.90,South,191,0.0,0.0,73,0.00,,,1.04,406.00,VWS V14.01,2013-06-18 18:35:00,
2013-06-18 14:40:00,88.2,78.1,29.90,SSE,148,2.2,4.4,72,0.00,,,1.04,260.00,VWS V14.01,2013-06-18 18:40:00,
2013-06-18 14:45:00,87.9,78.6,29.90,SSW,209,0.0,1.1,74,0.00,,,1.04,394.00,VWS V14.01,2013-06-18 18:45:00,
2013-06-18 14:50:00,88.3,79.0,29.89,SSW,202,0.0,1.1,74,0.00,,,1.04,352.00,VWS V14.01,2013-06-18 18:50:00,
2013-06-18 14:55:00,88.8,78.2,29.89,SSW,198,2.2,5.5,71,0.00,,,1.04,849.00,VWS V14.01,2013-06-18 18:55:00,
2013-06-18 15:00:00,90.1,79.4,29.89,West,275,3.3,5.5,71,0.00,,,1.04,969.00,VWS V14.01,2013-06-18 19:00:00,
2013-06-18 15:05:00,89.6,77.2,29.89,SW,235,1.1,2.2,67,0.00,,,1.04,279.00,VWS V14.01,2013-06-18 19:05:00,
2013-06-18 15:10:00,88.1,77.5,29.90,SSW,205,3.3,3.3,71,0.00,,,1.04,148.00,VWS V14.01,2013-06-18 19:10:00,
2013-06-18 15:15:00,87.6,77.0,29.90,SW,226,1.1,3.3,71,0.00,,,1.04,125.00,VWS V14.01,2013-06-18 19:15:00,
2013-06-18 15:20:00,86.9,77.2,29.89,SW,220,0.0,3.3,73,0.00,,,1.04,107.00,VWS V14.01,2013-06-18 19:20:00,
2013-06-18 15:25:00,86.3,77.9,29.89,West,277,0.0,0.0,76,0.00,,,1.04,104.00,VWS V14.01,2013-06-18 19:25:00,
2013-06-18 15:30:00,85.8,77.8,29.89,SSW,209,0.0,0.0,77,0.00,,,1.04,128.00,VWS V14.01,2013-06-18 19:30:00,
2013-06-18 15:35:00,85.8,77.4,29.88,SSW,212,1.1,2.2,76,0.00,,,1.04,315.00,VWS V14.01,2013-06-18 19:35:00,
2013-06-18 15:40:00,87.8,79.3,29.88,NW,325,0.0,2.2,76,0.00,,,1.04,937.00,VWS V14.01,2013-06-18 19:40:00,
2013-06-18 15:45:00,88.8,78.7,29.88,North,358,0.0,0.0,72,0.00,,,1.04,867.00,VWS V14.01,2013-06-18 19:45:00,
2013-06-18 15:50:00,88.6,77.5,29.88,NNW,329,1.1,5.5,70,0.00,,,1.04,838.00,VWS V14.01,2013-06-18 19:50:00,
2013-06-18 15:55:00,88.8,78.7,29.88,WNW,294,0.0,0.0,72,0.00,,,1.04,805.00,VWS V14.01,2013-06-18 19:55:00,
2013-06-18 16:00:00,88.8,77.4,29.88,SW,230,1.1,4.4,69,0.00,,,1.04,773.00,VWS V14.01,2013-06-18 20:00:00,
2013-06-18 16:05:00,89.2,77.8,29.88,WSW,247,1.1,1.1,69,0.00,,,1.04,749.00,VWS V14.01,2013-06-18 20:05:00,
2013-06-18 16:10:00,89.2,78.1,29.87,WSW,253,1.1,1.1,70,0.00,,,1.04,738.00,VWS V14.01,2013-06-18 20:10:00,
2013-06-18 16:15:00,88.8,77.8,29.87,West,260,1.1,3.3,70,0.00,,,1.04,721.00,VWS V14.01,2013-06-18 20:15:00,
2013-06-18 16:20:00,89.1,78.0,29.87,WNW,285,1.1,1.1,70,0.00,,,1.04,728.00,VWS V14.01,2013-06-18 20:20:00,
2013-06-18 16:25:00,89.2,77.7,29.87,SSW,210,2.2,2.2,69,0.00,,,1.04,557.00,VWS V14.01,2013-06-18 20:25:00,
2013-06-18 16:30:00,89.6,78.5,29.87,SSW,210,3.3,7.7,70,0.00,,,1.04,622.00,VWS V14.01,2013-06-18 20:30:00,
2013-06-18 16:35:00,89.4,78.8,29.87,South,191,4.4,6.6,71,0.00,,,1.04,708.00,VWS V14.01,2013-06-18 20:35:00,
2013-06-18 16:40:00,90.1,79.4,29.87,SSE,164,2.2,4.4,71,0.00,,,1.04,744.00,VWS V14.01,2013-06-18 20:40:00,
2013-06-18 16:45:00,89.3,77.8,29.87,South,184,5.5,5.5,69,0.00,,,1.04,107.00,VWS V14.01,2013-06-18 20:45:00,
2013-06-18 16:50:00,88.2,78.0,29.88,South,180,1.1,1.1,72,0.00,,,1.04,77.00,VWS V14.01,2013-06-18 20:50:00,
2013-06-18 16:55:00,87.4,78.2,29.88,West,272,1.1,2.2,74,0.00,,,1.04,37.00,VWS V14.01,2013-06-18 20:55:00,
2013-06-18 17:00:00,85.9,74.2,29.90,West,268,4.4,4.4,68,0.00,,,1.04,7.00,VWS V14.01,2013-06-18 21:00:00,
2013-06-18 17:05:00,81.6,71.2,29.92,NW,308,6.6,7.7,71,0.00,,,1.04,9.00,VWS V14.01,2013-06-18 21:05:00,
2013-06-18 17:10:00,77.2,70.5,29.90,West,268,2.2,3.3,80,0.01,,,1.05,18.00,VWS V14.01,2013-06-18 21:10:00,
2013-06-18 17:15:00,74.9,70.5,29.89,WNW,285,0.0,0.0,86,0.01,,,1.05,18.00,VWS V14.01,2013-06-18 21:15:00,
2013-06-18 17:20:00,74.2,70.8,29.88,NW,320,0.0,1.1,89,0.01,,,1.05,18.00,VWS V14.01,2013-06-18 21:20:00,
2013-06-18 17:25:00,73.8,71.0,29.87,South,177,0.0,0.0,91,0.01,,,1.05,18.00,VWS V14.01,2013-06-18 21:25:00,
2013-06-18 17:30:00,73.6,70.4,29.87,SW,231,0.0,0.0,90,0.01,,,1.05,21.00,VWS V14.01,2013-06-18 21:30:00,
2013-06-18 17:35:00,74.1,70.9,29.87,West,262,0.0,0.0,90,0.01,,,1.05,28.00,VWS V14.01,2013-06-18 21:35:00,
2013-06-18 17:40:00,74.3,70.6,29.86,NNW,338,0.0,0.0,88,0.01,,,1.05,46.00,VWS V14.01,2013-06-18 21:40:00,
2013-06-18 17:45:00,74.6,71.1,29.85,ESE,113,0.0,1.1,89,0.01,,,1.05,67.00,VWS V14.01,2013-06-18 21:45:00,
2013-06-18 17:50:00,74.9,71.2,29.85,WNW,287,0.0,0.0,88,0.01,,,1.05,81.00,VWS V14.01,2013-06-18 21:50:00,
2013-06-18 17:55:00,75.2,71.5,29.85,South,182,1.1,1.1,88,0.01,,,1.05,90.00,VWS V14.01,2013-06-18 21:55:00,
2013-06-18 18:00:00,75.7,71.8,29.85,South,186,0.0,0.0,88,0.01,,,1.05,93.00,VWS V14.01,2013-06-18 22:00:00,
2013-06-18 18:05:00,76.1,71.9,29.85,West,259,0.0,1.1,87,0.01,,,1.05,102.00,VWS V14.01,2013-06-18 22:05:00,
2013-06-18 18:10:00,76.2,72.1,29.85,SSW,212,0.0,0.0,87,0.00,,,1.05,111.00,VWS V14.01,2013-06-18 22:10:00,
2013-06-18 18:15:00,76.4,72.3,29.86,SSW,212,0.0,0.0,87,0.00,,,1.05,116.00,VWS V14.01,2013-06-18 22:15:00,
2013-06-18 18:20:00,76.9,72.1,29.86,SSE,150,0.0,0.0,85,0.00,,,1.05,114.00,VWS V14.01,2013-06-18 22:20:00,
2013-06-18 18:25:00,77.2,72.3,29.86,South,179,0.0,2.2,85,0.00,,,1.05,104.00,VWS V14.01,2013-06-18 22:25:00,
2013-06-18 18:30:00,77.2,72.4,29.86,SSW,192,2.2,2.2,85,0.00,,,1.05,88.00,VWS V14.01,2013-06-18 22:30:00,
2013-06-18 18:35:00,77.3,72.5,29.86,SSE,160,0.0,0.0,85,0.00,,,1.05,76.00,VWS V14.01,2013-06-18 22:35:00,
2013-06-18 18:40:00,77.4,72.9,29.86,South,179,0.0,0.0,86,0.00,,,1.05,72.00,VWS V14.01,2013-06-18 22:40:00,
2013-06-18 18:45:00,77.3,72.5,29.86,South,179,0.0,1.1,85,0.00,,,1.05,76.00,VWS V14.01,2013-06-18 22:45:00,
2013-06-18 18:50:00,77.4,72.9,29.86,SE,126,0.0,0.0,86,0.00,,,1.05,77.00,VWS V14.01,2013-06-18 22:50:00,
2013-06-18 18:55:00,77.4,73.6,29.86,SE,126,0.0,0.0,88,0.00,,,1.05,67.00,VWS V14.01,2013-06-18 22:55:00,
2013-06-18 19:00:00,77.2,73.1,29.86,SE,126,0.0,0.0,87,0.00,,,1.05,56.00,VWS V14.01,2013-06-18 23:00:00,
2013-06-18 19:05:00,77.3,72.8,29.86,SSW,192,0.0,0.0,86,0.00,,,1.05,51.00,VWS V14.01,2013-06-18 23:05:00,
2013-06-18 19:10:00,77.4,72.6,29.86,SSW,192,2.2,2.2,85,0.00,,,1.05,63.00,VWS V14.01,2013-06-18 23:10:00,
2013-06-18 19:15:00,77.9,73.8,29.86,SSW,192,0.0,0.0,87,0.00,,,1.05,70.00,VWS V14.01,2013-06-18 23:15:00,
2013-06-18 19:20:00,77.8,73.7,29.86,SSW,192,0.0,0.0,87,0.00,,,1.05,70.00,VWS V14.01,2013-06-18 23:20:00,
2013-06-18 19:25:00,77.9,74.4,29.87,NNW,348,0.0,0.0,89,0.00,,,1.05,69.00,VWS V14.01,2013-06-18 23:25:00,
2013-06-18 19:30:00,77.8,74.7,29.87,NNW,348,0.0,0.0,90,0.00,,,1.05,60.00,VWS V14.01,2013-06-18 23:30:00,
2013-06-18 19:35:00,77.7,74.2,29.87,NNW,348,0.0,0.0,89,0.00,,,1.05,49.00,VWS V14.01,2013-06-18 23:35:00,
2013-06-18 19:40:00,77.4,74.3,29.87,NNW,348,0.0,1.1,90,0.00,,,1.05,47.00,VWS V14.01,2013-06-18 23:40:00,
2013-06-18 19:45:00,77.3,74.2,29.87,NNW,348,0.0,0.0,90,0.00,,,1.05,32.00,VWS V14.01,2013-06-18 23:45:00,
2013-06-18 19:50:00,77.2,74.3,29.87,NNW,348,0.0,0.0,91,0.00,,,1.05,25.00,VWS V14.01,2013-06-18 23:50:00,
2013-06-18 19:55:00,76.9,74.1,29.87,NNW,348,0.0,0.0,91,0.00,,,1.05,25.00,VWS V14.01,2013-06-18 23:55:00,
2013-06-18 20:00:00,76.9,74.1,29.87,NNW,348,0.0,0.0,91,0.00,,,1.05,19.00,VWS V14.01,2013-06-19 00:00:00,
2013-06-18 20:05:00,76.7,73.8,29.87,NNW,348,0.0,0.0,91,0.00,,,1.05,14.00,VWS V14.01,2013-06-19 00:05:00,
2013-06-18 20:10:00,76.6,73.7,29.87,NNW,348,0.0,0.0,91,0.00,,,1.05,11.00,VWS V14.01,2013-06-19 00:10:00,
2013-06-18 20:15:00,76.3,73.5,29.87,NNW,348,0.0,0.0,91,0.00,,,1.05,5.00,VWS V14.01,2013-06-19 00:15:00,
2013-06-18 20:20:00,76.2,73.8,29.87,NNW,348,0.0,0.0,92,0.00,,,1.05,0.00,VWS V14.01,2013-06-19 00:20:00,
2013-06-18 20:25:00,76.2,73.8,29.87,NNW,348,0.0,0.0,92,0.00,,,1.05,0.00,VWS V14.01,2013-06-19 00:25:00,
2013-06-18 20:30:00,75.9,73.5,29.87,NNW,348,0.0,0.0,92,0.00,,,1.05,0.00,VWS V14.01,2013-06-19 00:30:00,
2013-06-18 20:35:00,75.8,73.6,29.87,NNW,348,0.0,0.0,93,0.00,,,1.05,0.00,VWS V14.01,2013-06-19 00:35:00,
2013-06-18 20:40:00,75.7,73.8,29.87,NNW,348,0.0,0.0,94,0.00,,,1.05,0.00,VWS V14.01,2013-06-19 00:40:00,
2013-06-18 20:45:00,75.4,73.6,29.87,NNW,348,0.0,0.0,94,0.00,,,1.05,0.00,VWS V14.01,2013-06-19 00:45:00,
2013-06-18 20:50:00,75.2,73.3,29.87,NNW,348,0.0,0.0,94,0.00,,,1.05,0.00,VWS V14.01,2013-06-19 00:50:00,
2013-06-18 20:55:00,75.1,73.2,29.87,NNW,348,0.0,0.0,94,0.00,,,1.05,0.00,VWS V14.01,2013-06-19 00:55:00,
2013-06-18 21:00:00,74.9,73.1,29.87,NNW,348,0.0,0.0,94,0.00,,,1.05,0.00,VWS V14.01,2013-06-19 01:00:00,
2013-06-18 21:05:00,74.8,72.9,29.87,NNW,348,0.0,0.0,94,0.00,,,1.05,0.00,VWS V14.01,2013-06-19 01:05:00,
2013-06-18 21:10:00,74.7,73.1,29.87,NNW,348,0.0,0.0,95,0.00,,,1.05,0.00,VWS V14.01,2013-06-19 01:10:00,
2013-06-18 21:15:00,74.6,73.0,29.87,NNW,348,0.0,0.0,95,0.00,,,1.05,0.00,VWS V14.01,2013-06-19 01:15:00,
2013-06-18 21:20:00,74.3,72.8,29.87,NNW,348,0.0,0.0,95,0.00,,,1.05,0.00,VWS V14.01,2013-06-19 01:20:00,
2013-06-18 21:25:00,74.3,72.8,29.87,NNW,348,0.0,0.0,95,0.00,,,1.05,0.00,VWS V14.01,2013-06-19 01:25:00,
2013-06-18 21:30:00,74.2,72.7,29.87,NNW,348,0.0,0.0,95,0.00,,,1.05,0.00,VWS V14.01,2013-06-19 01:30:00,
2013-06-18 21:35:00,74.2,73.0,29.87,NNW,348,0.0,0.0,96,0.00,,,1.05,0.00,VWS V14.01,2013-06-19 01:35:00,
2013-06-18 21:40:00,74.1,72.5,29.87,NNW,348,0.0,0.0,95,0.00,,,1.05,0.00,VWS V14.01,2013-06-19 01:40:00,
2013-06-18 21:45:00,74.1,72.8,29.87,NNW,348,0.0,0.0,96,0.00,,,1.05,0.00,VWS V14.01,2013-06-19 01:45:00,
2013-06-18 21:50:00,73.9,72.7,29.87,NNW,348,0.0,0.0,96,0.00,,,1.05,0.00,VWS V14.01,2013-06-19 01:50:00,
2013-06-18 21:55:00,74.1,72.8,29.87,NNW,348,0.0,0.0,96,0.00,,,1.05,0.00,VWS V14.01,2013-06-19 01:55:00,
2013-06-18 22:00:00,73.9,72.7,29.87,NNW,348,0.0,0.0,96,0.00,,,1.05,0.00,VWS V14.01,2013-06-19 02:00:00,
2013-06-18 22:05:00,73.8,72.5,29.88,NNW,348,0.0,0.0,96,0.00,,,1.05,0.00,VWS V14.01,2013-06-19 02:05:00,
2013-06-18 22:10:00,73.8,72.6,29.88,NNW,348,0.0,0.0,96,0.00,,,1.05,0.00,VWS V14.01,2013-06-19 02:10:00,
2013-06-18 22:15:00,73.8,72.9,29.88,NNW,348,0.0,0.0,97,0.00,,,1.05,0.00,VWS V14.01,2013-06-19 02:15:00,
2013-06-18 22:20:00,73.7,72.4,29.88,NNW,348,0.0,0.0,96,0.00,,,1.05,0.00,VWS V14.01,2013-06-19 02:20:00,
2013-06-18 22:25:00,73.7,72.4,29.88,NNW,348,0.0,0.0,96,0.00,,,1.05,0.00,VWS V14.01,2013-06-19 02:25:00,
2013-06-18 22:30:00,73.7,72.4,29.88,NNW,348,0.0,0.0,96,0.00,,,1.05,0.00,VWS V14.01,2013-06-19 02:30:00,
2013-06-18 22:35:00,73.9,73.1,29.88,West,262,0.0,0.0,97,0.00,,,1.05,0.00,VWS V14.01,2013-06-19 02:35:00,
2013-06-18 22:40:00,74.2,73.3,29.88,SW,216,0.0,0.0,97,0.00,,,1.05,0.00,VWS V14.01,2013-06-19 02:40:00,
2013-06-18 22:45:00,74.6,73.7,29.88,WSW,237,0.0,0.0,97,0.00,,,1.05,0.00,VWS V14.01,2013-06-19 02:45:00,
2013-06-18 22:50:00,75.8,74.9,29.89,SW,221,1.1,2.2,97,0.00,,,1.05,0.00,VWS V14.01,2013-06-19 02:50:00,
2013-06-18 22:55:00,76.8,75.8,29.89,SW,214,0.0,0.0,97,0.00,,,1.05,0.00,VWS V14.01,2013-06-19 02:55:00,
2013-06-18 23:00:00,77.2,76.2,29.89,SW,229,1.1,3.3,97,0.00,,,1.05,0.00,VWS V14.01,2013-06-19 03:00:00,
2013-06-18 23:05:00,77.9,77.0,29.89,SSE,157,2.2,2.2,97,0.00,,,1.05,0.00,VWS V14.01,2013-06-19 03:05:00,
2013-06-18 23:10:00,78.3,77.1,29.89,SSW,212,0.0,0.0,96,0.00,,,1.05,0.00,VWS V14.01,2013-06-19 03:10:00,
2013-06-18 23:15:00,78.7,77.4,29.89,SW,222,2.2,2.2,96,0.00,,,1.05,0.00,VWS V14.01,2013-06-19 03:15:00,
2013-06-18 23:20:00,78.9,77.4,29.89,SSE,157,3.3,3.3,95,0.00,,,1.05,0.00,VWS V14.01,2013-06-19 03:20:00,
2013-06-18 23:25:00,79.2,77.6,29.89,South,188,1.1,1.1,95,0.00,,,1.05,0.00,VWS V14.01,2013-06-19 03:25:00,
2013-06-18 23:30:00,79.2,77.7,29.89,South,179,4.4,4.4,95,0.00,,,1.05,0.00,VWS V14.01,2013-06-19 03:30:00,
2013-06-18 23:35:00,79.4,77.6,29.89,SSW,206,2.2,2.2,94,0.00,,,1.05,0.00,VWS V14.01,2013-06-19 03:35:00,
2013-06-18 23:40:00,79.7,77.8,29.89,South,171,0.0,0.0,94,0.00,,,1.05,0.00,VWS V14.01,2013-06-19 03:40:00,
2013-06-18 23:45:00,79.7,77.8,29.89,SSE,164,2.2,2.2,94,0.00,,,1.05,0.00,VWS V14.01,2013-06-19 03:45:00,
2013-06-18 23:50:00,79.8,77.9,29.89,South,173,2.2,3.3,94,0.00,,,1.05,0.00,VWS V14.01,2013-06-19 03:50:00,
2013-06-18 23:55:00,79.8,78.0,29.89,SW,227,0.0,5.5,94,0.00,,,1.05,0.00,VWS V14.01,2013-06-19 03:55:00,